Time;durP1;ratioP1;P1;durP2;ratioP2;P2;SDS_P1;SDS_P2;PMS_P1;PMS_P2;Temp;Humidity;BMP_temperature;BMP_pressure;BME280_temperature;BME280_humidity;BME280_pressure;Samples;Min_cycle;Max_cycle;Signal;HPM_P1;HPM_P2
2022/12/10 00:02:03;;;;;;;0.50;0.50;;;1.50;99.90;;;;;;5135670;27;20453;-79
2022/12/10 00:04:30;;;;;;;1.40;1.13;;;1.50;99.90;;;;;;5135332;27;20968;-79
2022/12/10 00:06:58;;;;;;;2.73;0.80;;;1.50;99.90;;;;;;5135225;27;20981;-79
2022/12/10 00:09:25;;;;;;;3.40;1.40;;;1.50;99.90;;;;;;5135539;27;20447;-79
2022/12/10 00:11:52;;;;;;;1.37;1.20;;;1.50;99.90;;;;;;5135514;27;20802;-79
2022/12/10 00:14:19;;;;;;;0.57;0.57;;;1.50;99.90;;;;;;5135432;27;20547;-79
2022/12/10 00:16:46;;;;;;;1.20;1.10;;;1.60;99.90;;;;;;5135254;27;20467;-79
2022/12/10 00:19:12;;;;;;;1.10;1.00;;;1.50;99.90;;;;;;5135432;27;20490;-79
2022/12/10 00:21:39;;;;;;;1.07;1.07;;;1.50;99.90;;;;;;5134852;27;20482;-79
2022/12/10 00:24:08;;;;;;;2.00;1.90;;;1.50;99.90;;;;;;5134908;27;20478;-79
2022/12/10 00:26:37;;;;;;;0.63;0.63;;;1.60;99.90;;;;;;5135089;27;20470;-79
2022/12/10 00:29:07;;;;;;;1.50;1.40;;;1.60;99.90;;;;;;5135316;27;20454;-79
2022/12/10 00:31:36;;;;;;;0.80;0.73;;;1.60;99.90;;;;;;5134747;27;20447;-79
2022/12/10 00:34:05;;;;;;;0.40;0.40;;;1.60;99.90;;;;;;5134444;27;20450;-79
2022/12/10 00:36:34;;;;;;;1.90;1.90;;;1.60;99.90;;;;;;5134996;27;20463;-79
2022/12/10 00:39:02;;;;;;;0.60;0.60;;;1.60;99.90;;;;;;5135136;27;20451;-79
2022/12/10 00:41:30;;;;;;;0.50;0.50;;;1.60;99.90;;;;;;5134938;27;20451;-79
2022/12/10 00:43:58;;;;;;;0.60;0.60;;;1.60;99.90;;;;;;5134577;27;20778;-79
2022/12/10 00:46:24;;;;;;;1.33;1.33;;;1.60;99.90;;;;;;5135045;27;20467;-79
2022/12/10 00:48:51;;;;;;;0.30;0.30;;;1.50;99.90;;;;;;5134771;27;20451;-79
2022/12/10 00:51:20;;;;;;;1.00;1.00;;;1.50;99.90;;;;;;5134780;27;20791;-79
2022/12/10 00:53:48;;;;;;;0.70;0.70;;;1.50;99.90;;;;;;5135289;27;20443;-79
2022/12/10 00:56:19;;;;;;;1.13;1.13;;;1.60;99.90;;;;;;5134600;27;20470;-80
2022/12/10 00:58:48;;;;;;;2.97;0.50;;;1.60;99.90;;;;;;5134694;27;20423;-79
2022/12/10 01:01:17;;;;;;;0.33;0.30;;;1.60;99.90;;;;;;5134582;27;20478;-79
2022/12/10 01:03:45;;;;;;;1.07;0.87;;;1.60;99.90;;;;;;5134220;27;20789;-79
2022/12/10 01:06:14;;;;;;;2.97;1.03;;;1.60;99.90;;;;;;5134554;27;20861;-79
2022/12/10 01:08:42;;;;;;;1.53;0.97;;;1.60;99.90;;;;;;5134264;27;20438;-79
2022/12/10 01:11:10;;;;;;;1.30;0.60;;;1.60;99.90;;;;;;5134204;27;20517;-79
2022/12/10 01:13:37;;;;;;;0.57;0.57;;;1.60;99.90;;;;;;5134486;27;20489;-79
2022/12/10 01:16:07;;;;;;;2.77;1.03;;;1.60;99.90;;;;;;5134062;27;20992;-79
2022/12/10 01:18:35;;;;;;;0.83;0.83;;;1.60;99.90;;;;;;5134398;27;20817;-79
2022/12/10 01:21:03;;;;;;;0.70;0.70;;;1.60;99.90;;;;;;5134085;27;20934;-79
2022/12/10 01:23:33;;;;;;;0.73;0.70;;;1.60;99.90;;;;;;5134062;27;20451;-79
2022/12/10 01:26:01;;;;;;;6.13;1.83;;;1.60;99.90;;;;;;5134310;27;20459;-79
2022/12/10 01:28:30;;;;;;;0.77;0.77;;;1.60;99.90;;;;;;5134314;27;20792;-79
2022/12/10 01:31:01;;;;;;;0.80;0.80;;;1.60;99.90;;;;;;5133981;27;21002;-79
2022/12/10 01:33:29;;;;;;;0.67;0.67;;;1.60;99.90;;;;;;5134570;27;20434;-79
2022/12/10 01:35:56;;;;;;;1.10;1.00;;;1.70;99.90;;;;;;5133863;27;20986;-79
2022/12/10 01:38:23;;;;;;;0.77;0.77;;;1.70;99.90;;;;;;5134221;27;20473;-79
2022/12/10 01:40:50;;;;;;;0.90;0.90;;;1.70;99.90;;;;;;5134167;27;20527;-79
2022/12/10 01:43:16;;;;;;;14.23;0.97;;;1.70;99.90;;;;;;5134407;27;20443;-79
2022/12/10 01:45:43;;;;;;;4.37;0.87;;;1.70;99.90;;;;;;5133749;27;20981;-79
2022/12/10 01:48:10;;;;;;;2.20;2.00;;;1.70;99.90;;;;;;5137927;27;20945;-79
2022/12/10 01:50:38;;;;;;;2.20;1.07;;;1.70;99.90;;;;;;5138276;27;20950;-79
2022/12/10 01:53:05;;;;;;;0.70;0.60;;;1.70;99.90;;;;;;5138247;27;20529;-79
2022/12/10 01:55:40;;;;;;;3.93;0.63;;;1.70;99.90;;;;;;5138057;27;20467;-79
2022/12/10 01:58:07;;;;;;;1.10;1.10;;;1.70;99.90;;;;;;5138156;27;20427;-79
2022/12/10 02:00:38;;;;;;;3.80;0.90;;;1.70;99.90;;;;;;5138295;27;20489;-79
2022/12/10 02:03:12;;;;;;;0.90;0.90;;;1.70;99.90;;;;;;5138345;27;20423;-79
2022/12/10 02:05:45;;;;;;;0.50;0.50;;;1.60;99.90;;;;;;5138234;27;20470;-79
2022/12/10 02:08:19;;;;;;;0.40;0.40;;;1.60;99.90;;;;;;5137979;27;20426;-79
2022/12/10 02:11:00;;;;;;;1.20;0.70;;;1.60;99.90;;;;;;5137953;27;20418;-79
2022/12/10 02:13:31;;;;;;;0.73;0.73;;;1.60;99.90;;;;;;5138317;27;20535;-79
2022/12/10 02:16:02;;;;;;;1.03;0.80;;;1.60;99.90;;;;;;5137729;27;20473;-79
2022/12/10 02:18:32;;;;;;;0.87;0.87;;;1.60;99.90;;;;;;5137975;27;20447;-79
2022/12/10 02:21:07;;;;;;;1.57;0.50;;;1.60;99.90;;;;;;5137335;27;20486;-79
2022/12/10 02:23:37;;;;;;;0.53;0.53;;;1.60;99.90;;;;;;5137793;27;20802;-79
2022/12/10 02:26:12;;;;;;;1.53;1.20;;;1.60;99.90;;;;;;5137501;27;20470;-79
2022/12/10 02:28:47;;;;;;;1.10;1.10;;;1.60;99.90;;;;;;5137595;27;20434;-79
2022/12/10 02:31:19;;;;;;;2.00;0.70;;;1.60;99.90;;;;;;5137551;27;20427;-79
2022/12/10 02:33:50;;;;;;;4.43;4.00;;;1.60;99.90;;;;;;5137763;27;20434;-79
2022/12/10 02:36:19;;;;;;;0.60;0.60;;;1.50;99.90;;;;;;5137365;27;20826;-79
2022/12/10 02:38:48;;;;;;;1.03;0.50;;;1.40;99.90;;;;;;5138474;27;20447;-79
2022/12/10 02:41:17;;;;;;;0.80;0.80;;;1.40;99.90;;;;;;5137221;27;20478;-79
2022/12/10 02:43:46;;;;;;;0.40;0.40;;;1.40;99.90;;;;;;5137236;27;20439;-79
2022/12/10 02:46:14;;;;;;;1.37;1.27;;;1.30;99.90;;;;;;5137114;27;20462;-79
2022/12/10 02:48:42;;;;;;;1.87;1.80;;;1.30;99.90;;;;;;5137148;27;20457;-79
2022/12/10 02:51:09;;;;;;;2.57;2.37;;;1.20;99.90;;;;;;5137125;27;20446;-79
2022/12/10 02:53:43;;;;;;;3.60;0.97;;;1.30;99.90;;;;;;5137011;27;20439;-79
2022/12/10 02:56:19;;;;;;;0.30;0.30;;;1.20;99.90;;;;;;5137004;27;20466;-79
2022/12/10 02:58:59;;;;;;;1.27;1.27;;;1.20;99.90;;;;;;5136099;27;20434;-79
2022/12/10 03:01:34;;;;;;;2.73;1.13;;;1.20;99.90;;;;;;5136882;27;20467;-79
2022/12/10 03:04:05;;;;;;;2.57;2.43;;;1.20;99.90;;;;;;5137351;27;20523;-79
2022/12/10 03:06:38;;;;;;;0.60;0.60;;;1.20;99.90;;;;;;5136444;27;21004;-79
2022/12/10 03:09:08;;;;;;;0.30;0.30;;;1.20;99.90;;;;;;5136818;27;20435;-79
2022/12/10 03:11:35;;;;;;;2.10;0.50;;;1.30;99.90;;;;;;5136719;27;20431;-79
2022/12/10 03:14:10;;;;;;;1.13;0.53;;;1.30;99.90;;;;;;5136369;27;20459;-79
2022/12/10 03:16:42;;;;;;;3.80;1.37;;;1.40;99.90;;;;;;5136272;27;20991;-79
2022/12/10 03:19:16;;;;;;;0.30;0.30;;;1.40;99.90;;;;;;5136623;27;20420;-79
2022/12/10 03:21:45;;;;;;;7.83;1.43;;;1.40;99.90;;;;;;5135940;27;21035;-79
2022/12/10 03:24:12;;;;;;;1.73;1.20;;;1.40;99.90;;;;;;5136152;27;20442;-79
2022/12/10 03:26:41;;;;;;;2.10;0.97;;;1.40;99.90;;;;;;5136359;27;20462;-79
2022/12/10 03:29:11;;;;;;;0.47;0.40;;;1.40;99.90;;;;;;5136386;27;20442;-79
2022/12/10 03:31:41;;;;;;;1.60;0.70;;;1.40;99.90;;;;;;5136073;27;20972;-79
2022/12/10 03:34:10;;;;;;;1.00;0.63;;;1.40;99.90;;;;;;5135985;27;20942;-79
2022/12/10 03:36:38;;;;;;;0.70;0.70;;;1.40;99.90;;;;;;5135827;27;20961;-79
2022/12/10 03:39:06;;;;;;;2.70;2.50;;;1.40;99.90;;;;;;5136172;27;20443;-78
2022/12/10 03:41:33;;;;;;;0.70;0.70;;;1.40;99.90;;;;;;5136057;27;20479;-79
2022/12/10 03:44:01;;;;;;;0.47;0.47;;;1.40;99.90;;;;;;5135808;27;20450;-79
2022/12/10 03:46:31;;;;;;;0.47;0.47;;;1.40;99.90;;;;;;5135936;27;20463;-79
2022/12/10 03:49:03;;;;;;;0.53;0.53;;;1.50;99.90;;;;;;5136032;27;20437;-79
2022/12/10 03:51:30;;;;;;;2.53;1.37;;;1.50;99.90;;;;;;5135640;27;20427;-79
2022/12/10 03:53:57;;;;;;;1.23;1.23;;;1.50;99.90;;;;;;5135887;27;20529;-79
2022/12/10 03:56:23;;;;;;;0.90;0.90;;;1.50;99.90;;;;;;5135728;27;20497;-79
2022/12/10 03:58:50;;;;;;;0.40;0.30;;;1.50;99.90;;;;;;5135445;27;20455;-79
2022/12/10 04:01:17;;;;;;;0.37;0.37;;;1.60;99.90;;;;;;5135627;27;20478;-79
2022/12/10 04:03:44;;;;;;;0.67;0.67;;;1.50;99.90;;;;;;5135641;27;20938;-79
2022/12/10 04:06:15;;;;;;;0.47;0.40;;;1.60;99.90;;;;;;5135214;27;20473;-79
2022/12/10 04:08:42;;;;;;;3.43;1.67;;;1.60;99.90;;;;;;5134790;27;20464;-79
2022/12/10 04:11:12;;;;;;;0.83;0.73;;;1.60;99.90;;;;;;5135478;27;20435;-79
2022/12/10 04:16:27;;;;;;;1.63;1.50;;;1.60;99.90;;;;;;5135185;27;20834;-79
2022/12/10 04:18:54;;;;;;;5.20;1.20;;;1.60;99.90;;;;;;5135502;27;20457;-79
2022/12/10 04:26:53;;;;;;;0.40;0.40;;;1.70;99.90;;;;;;5135050;27;20450;-79
2022/12/10 04:29:20;;;;;;;2.50;0.60;;;1.70;99.90;;;;;;5135222;27;20439;-79
2022/12/10 04:31:47;;;;;;;0.90;0.57;;;1.70;99.90;;;;;;5135373;27;20443;-79
2022/12/10 04:34:13;;;;;;;0.53;0.53;;;1.70;99.90;;;;;;5135139;27;20447;-79
2022/12/10 04:36:41;;;;;;;1.40;1.33;;;1.70;99.90;;;;;;5134973;27;20458;-79
2022/12/10 04:39:11;;;;;;;1.10;1.10;;;1.70;99.90;;;;;;5134710;27;20938;-79
2022/12/10 04:41:38;;;;;;;1.37;1.13;;;1.70;99.90;;;;;;5134923;27;20530;-79
2022/12/10 04:44:05;;;;;;;0.80;0.60;;;1.60;99.90;;;;;;5134973;27;20457;-79
2022/12/10 04:46:32;;;;;;;1.43;0.90;;;1.60;99.90;;;;;;5134801;27;20985;-79
2022/12/10 04:48:59;;;;;;;2.67;0.80;;;1.60;99.90;;;;;;5134880;27;20455;-79
2022/12/10 04:51:26;;;;;;;1.03;0.83;;;1.60;99.90;;;;;;5134815;27;20447;-79
2022/12/10 04:53:54;;;;;;;6.53;0.97;;;1.60;99.90;;;;;;5134509;27;20448;-79
2022/12/10 04:56:21;;;;;;;1.13;0.70;;;1.70;99.90;;;;;;5134930;27;20487;-79
2022/12/10 04:58:48;;;;;;;1.67;0.80;;;1.70;99.90;;;;;;5134690;27;20812;-79
2022/12/10 05:01:15;;;;;;;4.43;1.70;;;1.70;99.90;;;;;;5134596;27;20479;-79
2022/12/10 05:03:42;;;;;;;0.40;0.40;;;1.60;99.90;;;;;;5134331;27;20972;-79
2022/12/10 05:06:10;;;;;;;0.40;0.40;;;1.60;99.90;;;;;;5134518;27;20459;-79
2022/12/10 05:08:38;;;;;;;0.87;0.87;;;1.60;99.90;;;;;;5134594;27;20439;-79
2022/12/10 05:11:08;;;;;;;0.47;0.40;;;1.50;99.90;;;;;;5134623;27;20439;-79
2022/12/10 05:13:35;;;;;;;0.43;0.43;;;1.50;99.90;;;;;;5134206;27;20435;-79
2022/12/10 05:16:03;;;;;;;0.90;0.90;;;1.50;99.90;;;;;;5134085;27;21026;-79
2022/12/10 05:18:30;;;;;;;1.77;1.67;;;1.40;99.90;;;;;;5134151;27;20451;-79
2022/12/10 05:20:59;;;;;;;1.40;1.40;;;1.40;99.90;;;;;;5133871;27;20497;-78
2022/12/10 05:23:27;;;;;;;0.90;0.83;;;1.50;99.90;;;;;;5134313;27;20450;-79
2022/12/10 05:25:59;;;;;;;1.17;1.17;;;1.40;99.90;;;;;;5134294;27;20454;-79
2022/12/10 05:28:28;;;;;;;0.93;0.93;;;1.40;99.90;;;;;;5134398;27;20431;-79
2022/12/10 05:30:56;;;;;;;0.30;0.20;;;1.40;99.90;;;;;;5134330;27;20442;-79
2022/12/10 05:33:23;;;;;;;0.43;0.43;;;1.40;99.90;;;;;;5134278;27;20447;-79
2022/12/10 05:35:54;;;;;;;0.50;0.50;;;1.40;99.90;;;;;;5134183;27;20833;-79
2022/12/10 05:38:21;;;;;;;3.43;1.43;;;1.50;99.90;;;;;;5133948;27;20457;-79
2022/12/10 05:40:48;;;;;;;0.80;0.80;;;1.40;99.90;;;;;;5133824;27;20985;-79
2022/12/10 05:43:15;;;;;;;3.67;1.17;;;1.40;99.90;;;;;;5134155;27;20450;-79
2022/12/10 05:45:43;;;;;;;1.33;1.30;;;1.40;99.90;;;;;;5134678;27;20833;-78
2022/12/10 05:48:11;;;;;;;0.80;0.53;;;1.50;99.90;;;;;;5134108;27;20980;-79
2022/12/10 05:50:38;;;;;;;0.90;0.90;;;1.50;99.90;;;;;;5133905;27;20443;-79
2022/12/10 05:53:05;;;;;;;0.63;0.63;;;1.50;99.90;;;;;;5133744;27;20450;-78
2022/12/10 05:55:32;;;;;;;0.50;0.50;;;1.50;99.90;;;;;;5134028;27;20463;-79
2022/12/10 05:57:59;;;;;;;0.97;0.50;;;1.50;99.90;;;;;;5134081;27;20473;-78
2022/12/10 06:00:26;;;;;;;0.60;0.60;;;1.40;99.90;;;;;;5133964;27;20443;-79
2022/12/10 06:02:55;;;;;;;0.50;0.50;;;1.40;99.90;;;;;;5134031;27;20448;-79
2022/12/10 06:05:22;;;;;;;0.50;0.50;;;1.40;99.90;;;;;;5133943;27;20471;-79
2022/12/10 06:07:48;;;;;;;1.07;0.97;;;1.30;99.90;;;;;;5134007;27;20438;-78
2022/12/10 06:10:15;;;;;;;0.30;0.30;;;1.30;99.90;;;;;;5133997;27;20439;-78
2022/12/10 06:12:42;;;;;;;0.90;0.90;;;1.30;99.90;;;;;;5133937;27;20435;-79
2022/12/10 06:15:10;;;;;;;1.67;1.23;;;1.30;99.90;;;;;;5133840;27;20466;-80
2022/12/10 06:17:37;;;;;;;0.30;0.30;;;1.40;99.90;;;;;;5133928;27;20807;-79
2022/12/10 06:20:06;;;;;;;0.87;0.87;;;1.30;99.90;;;;;;5133868;27;20443;-79
2022/12/10 06:22:34;;;;;;;0.60;0.60;;;1.30;99.90;;;;;;5133692;27;20490;-79
2022/12/10 06:25:01;;;;;;;0.67;0.67;;;1.30;99.90;;;;;;5133447;27;20956;-79
2022/12/10 06:27:30;;;;;;;4.70;1.40;;;1.30;99.90;;;;;;5133833;27;20449;-79
2022/12/10 06:29:56;;;;;;;0.70;0.40;;;1.40;99.90;;;;;;5133763;27;20438;-80
2022/12/10 06:32:23;;;;;;;1.03;0.57;;;1.30;99.90;;;;;;5134677;27;20438;-80
2022/12/10 06:34:50;;;;;;;0.77;0.77;;;1.30;99.90;;;;;;5137015;27;20968;-80
2022/12/10 06:37:18;;;;;;;0.60;0.60;;;1.30;99.90;;;;;;5137124;27;20443;-80
2022/12/10 06:39:45;;;;;;;0.30;0.30;;;1.30;99.90;;;;;;5137026;27;20953;-80
2022/12/10 06:42:11;;;;;;;0.97;0.90;;;1.30;99.90;;;;;;5137220;27;20851;-79
2022/12/10 06:44:38;;;;;;;0.30;0.30;;;1.30;99.90;;;;;;5137695;27;20465;-79
2022/12/10 06:47:05;;;;;;;0.57;0.57;;;1.20;99.90;;;;;;5137178;27;20847;-79
2022/12/10 06:49:32;;;;;;;0.30;0.30;;;1.20;99.90;;;;;;5138616;27;20941;-80
2022/12/10 06:51:58;;;;;;;1.80;0.97;;;1.20;99.90;;;;;;5137548;27;20438;-79
2022/12/10 06:54:27;;;;;;;1.13;1.13;;;1.20;99.90;;;;;;5136744;27;20451;-79
2022/12/10 06:56:54;;;;;;;1.13;1.03;;;1.20;99.90;;;;;;5136936;27;20470;-80
2022/12/10 06:59:21;;;;;;;3.37;0.63;;;1.20;99.90;;;;;;5136954;27;20445;-80
2022/12/10 07:01:48;;;;;;;1.40;0.70;;;1.20;99.90;;;;;;5136855;27;20471;-79
2022/12/10 07:04:15;;;;;;;0.30;0.30;;;1.20;99.90;;;;;;5136883;27;20456;-79
2022/12/10 07:06:42;;;;;;;0.50;0.50;;;1.20;99.90;;;;;;5136800;27;20532;-79
2022/12/10 07:09:09;;;;;;;0.90;0.90;;;1.20;99.90;;;;;;5143069;27;20443;-79
2022/12/10 07:11:38;;;;;;;0.57;0.40;;;1.20;99.90;;;;;;5136680;27;20476;-79
2022/12/10 07:14:05;;;;;;;0.40;0.40;;;1.20;99.90;;;;;;5136694;27;20443;-79
2022/12/10 07:16:33;;;;;;;0.40;0.40;;;1.20;99.90;;;;;;5136569;27;20466;-79
2022/12/10 07:19:02;;;;;;;8.30;2.53;;;1.20;99.90;;;;;;5136586;27;20451;-79
2022/12/10 07:21:31;;;;;;;1.37;1.27;;;1.10;99.90;;;;;;5136082;27;20487;-79
2022/12/10 07:24:00;;;;;;;0.50;0.50;;;1.10;99.90;;;;;;5136450;27;20450;-78
2022/12/10 07:26:30;;;;;;;0.30;0.30;;;1.10;99.90;;;;;;5136016;27;20978;-78
2022/12/10 07:28:59;;;;;;;0.30;0.30;;;1.20;99.90;;;;;;5136286;27;20447;-78
2022/12/10 07:31:26;;;;;;;0.40;0.40;;;1.10;99.90;;;;;;5136207;27;20438;-78
2022/12/10 07:33:55;;;;;;;0.30;0.30;;;1.10;99.90;;;;;;5136242;27;20449;-78
2022/12/10 07:36:23;;;;;;;1.90;1.23;;;1.20;99.90;;;;;;5135782;27;20463;-78
2022/12/10 07:38:50;;;;;;;0.87;0.87;;;1.10;99.90;;;;;;5136127;27;20449;-78
2022/12/10 07:41:17;;;;;;;1.07;0.63;;;1.10;99.90;;;;;;5136056;27;20478;-78
2022/12/10 07:43:45;;;;;;;0.97;0.40;;;1.10;99.90;;;;;;5135922;27;20457;-78
2022/12/10 07:46:16;;;;;;;0.57;0.50;;;1.10;99.90;;;;;;5135632;27;20898;-78
2022/12/10 07:48:46;;;;;;;1.40;1.30;;;1.10;99.90;;;;;;5135995;27;20431;-78
2022/12/10 07:51:14;;;;;;;0.30;0.30;;;1.20;99.90;;;;;;5135895;27;20814;-78
2022/12/10 07:53:40;;;;;;;0.30;0.30;;;1.20;99.90;;;;;;5135846;27;20445;-78
2022/12/10 07:56:08;;;;;;;0.80;0.80;;;1.20;99.90;;;;;;5135943;27;20471;-78
2022/12/10 07:58:35;;;;;;;0.70;0.50;;;1.20;99.90;;;;;;5135473;27;20934;-78
2022/12/10 08:01:07;;;;;;;1.27;0.73;;;1.20;99.90;;;;;;5135663;27;20452;-79
2022/12/10 08:03:35;;;;;;;1.00;1.00;;;1.20;99.90;;;;;;5135658;27;20431;-78
2022/12/10 08:06:03;;;;;;;0.33;0.33;;;1.30;99.90;;;;;;5135230;27;20462;-78
2022/12/10 08:08:30;;;;;;;0.40;0.30;;;1.30;99.90;;;;;;5135632;27;20439;-78
2022/12/10 08:11:00;;;;;;;1.13;1.13;;;1.30;99.90;;;;;;5135589;27;20455;-78
2022/12/10 08:13:27;;;;;;;3.07;1.10;;;1.30;99.90;;;;;;5135835;27;20445;-78
2022/12/10 08:15:54;;;;;;;1.37;1.27;;;1.30;99.90;;;;;;5135329;27;20462;-78
2022/12/10 08:18:21;;;;;;;1.13;1.13;;;1.30;99.90;;;;;;5135001;27;20435;-78
2022/12/10 08:20:49;;;;;;;6.10;1.40;;;1.40;99.90;;;;;;5135033;27;20926;-78
2022/12/10 08:23:16;;;;;;;0.70;0.70;;;1.40;99.90;;;;;;5135244;27;20467;-78
2022/12/10 08:25:42;;;;;;;0.60;0.60;;;1.40;99.90;;;;;;5135163;27;20470;-78
2022/12/10 08:28:09;;;;;;;1.17;1.07;;;1.50;99.90;;;;;;5135165;27;20446;-78
2022/12/10 08:30:36;;;;;;;1.80;0.70;;;1.50;99.90;;;;;;5135209;27;20491;-78
2022/12/10 08:33:03;;;;;;;5.00;1.63;;;1.50;99.90;;;;;;5135127;27;20445;-78
2022/12/10 08:35:30;;;;;;;1.70;1.10;;;1.60;99.90;;;;;;5135093;27;20458;-78
2022/12/10 08:37:58;;;;;;;2.50;0.80;;;1.60;99.90;;;;;;5135011;27;20443;-78
2022/12/10 08:40:25;;;;;;;1.13;1.13;;;1.60;99.90;;;;;;5134930;27;20450;-78
2022/12/10 08:42:52;;;;;;;1.57;0.80;;;1.70;99.90;;;;;;5134836;27;20481;-78
2022/12/10 08:45:19;;;;;;;0.83;0.83;;;1.70;99.90;;;;;;5134770;27;20489;-78
2022/12/10 08:47:46;;;;;;;0.83;0.40;;;1.70;99.90;;;;;;5134845;27;20812;-78
2022/12/10 08:50:13;;;;;;;0.77;0.57;;;1.70;99.90;;;;;;5134453;27;20941;-78
2022/12/10 08:52:39;;;;;;;1.27;1.17;;;1.70;99.90;;;;;;5134523;27;20779;-78
2022/12/10 08:55:09;;;;;;;0.60;0.60;;;1.70;99.90;;;;;;5134176;27;20507;-78
2022/12/10 08:57:36;;;;;;;0.50;0.50;;;1.80;99.90;;;;;;5134652;27;20458;-78
2022/12/10 09:00:04;;;;;;;0.33;0.33;;;1.80;99.90;;;;;;5134724;27;20466;-78
2022/12/10 09:02:31;;;;;;;0.97;0.63;;;1.80;99.90;;;;;;5134630;27;20650;-78
2022/12/10 09:04:57;;;;;;;1.43;0.97;;;1.80;99.90;;;;;;5134718;27;20447;-78
2022/12/10 09:07:24;;;;;;;1.50;0.80;;;1.90;99.90;;;;;;5134675;27;20438;-78
2022/12/10 09:09:51;;;;;;;1.03;0.50;;;1.90;99.90;;;;;;5134205;27;20447;-78
2022/12/10 09:12:19;;;;;;;0.73;0.73;;;1.90;99.90;;;;;;5134745;27;20442;-78
2022/12/10 09:14:46;;;;;;;0.77;0.77;;;1.90;99.90;;;;;;5134107;27;20804;-78
2022/12/10 09:17:13;;;;;;;3.30;0.77;;;1.90;99.90;;;;;;5134387;27;20811;-78
2022/12/10 09:19:39;;;;;;;1.70;1.43;;;1.90;99.90;;;;;;5134456;27;20450;-78
2022/12/10 09:22:06;;;;;;;0.87;0.70;;;1.80;99.90;;;;;;5133992;27;20490;-78
2022/12/10 09:24:33;;;;;;;1.53;1.47;;;1.80;99.90;;;;;;5134338;27;20443;-78
2022/12/10 09:27:01;;;;;;;1.10;0.70;;;1.80;99.90;;;;;;5134577;27;20553;-78
2022/12/10 09:29:29;;;;;;;3.50;1.77;;;1.80;99.90;;;;;;5134248;27;20446;-78
2022/12/10 09:31:56;;;;;;;0.30;0.30;;;1.80;99.90;;;;;;5133958;27;20926;-78
2022/12/10 09:34:22;;;;;;;2.40;0.50;;;1.80;99.90;;;;;;5133930;27;20964;-78
2022/12/10 09:36:49;;;;;;;1.33;0.40;;;1.80;99.90;;;;;;5134156;27;20439;-78
2022/12/10 09:39:16;;;;;;;0.83;0.73;;;1.80;99.90;;;;;;5134200;27;20438;-78
2022/12/10 09:42:01;;;;;;;8.93;1.43;;;1.80;99.90;;;;;;5134141;27;20474;-78
2022/12/10 09:44:38;;;;;;;7.40;1.50;;;1.80;99.90;;;;;;5133878;27;20434;-78
2022/12/10 09:47:09;;;;;;;3.43;0.70;;;1.80;99.90;;;;;;5134104;27;20464;-78
2022/12/10 09:49:47;;;;;;;0.57;0.57;;;1.80;99.90;;;;;;5134128;27;20431;-78
2022/12/10 09:52:18;;;;;;;0.83;0.80;;;1.70;99.90;;;;;;5133836;27;20467;-78
2022/12/10 09:54:49;;;;;;;0.60;0.60;;;1.80;99.90;;;;;;5134101;27;20855;-78
2022/12/10 09:57:21;;;;;;;0.47;0.47;;;1.80;99.90;;;;;;5134111;27;20426;-78
2022/12/10 09:59:51;;;;;;;2.20;1.50;;;1.80;99.90;;;;;;5134029;27;20435;-78
2022/12/10 10:02:23;;;;;;;3.33;1.10;;;1.80;99.90;;;;;;5133936;27;20466;-78
2022/12/10 10:04:51;;;;;;;0.97;0.97;;;1.90;99.90;;;;;;5133982;27;20431;-78
2022/12/10 10:07:22;;;;;;;2.30;1.10;;;1.90;99.90;;;;;;5134773;27;20450;-78
2022/12/10 10:09:49;;;;;;;1.23;1.13;;;1.90;99.90;;;;;;5137876;27;20435;-78
2022/12/10 10:12:17;;;;;;;0.70;0.60;;;1.90;99.90;;;;;;5137763;27;20443;-78
2022/12/10 10:14:45;;;;;;;0.33;0.33;;;2.00;99.90;;;;;;5137770;27;20451;-78
2022/12/10 10:17:18;;;;;;;1.33;1.07;;;1.90;99.90;;;;;;5137679;27;20466;-78
2022/12/10 10:19:45;;;;;;;0.57;0.43;;;1.90;99.90;;;;;;5137965;27;20461;-78
2022/12/10 10:22:12;;;;;;;0.60;0.60;;;1.90;99.90;;;;;;5137318;27;20490;-78
2022/12/10 10:24:42;;;;;;;1.33;1.33;;;1.90;99.90;;;;;;5137264;27;20480;-78
2022/12/10 10:27:16;;;;;;;1.00;1.00;;;1.90;99.90;;;;;;5137734;27;20462;-78
2022/12/10 10:29:45;;;;;;;1.27;0.50;;;2.00;99.90;;;;;;5137530;27;20435;-78
2022/12/10 10:32:16;;;;;;;2.10;1.30;;;2.00;99.90;;;;;;5137410;27;20803;-78
2022/12/10 10:34:45;;;;;;;0.97;0.97;;;2.10;99.90;;;;;;5137416;27;20787;-78
2022/12/10 10:37:19;;;;;;;0.40;0.40;;;2.10;99.90;;;;;;5136975;27;20989;-78
2022/12/10 10:39:49;;;;;;;2.73;2.53;;;2.20;99.90;;;;;;5137319;27;20398;-78
2022/12/10 10:42:29;;;;;;;0.70;0.70;;;2.20;99.90;;;;;;5137192;27;20549;-78
2022/12/10 10:44:56;;;;;;;2.50;0.90;;;2.30;99.90;;;;;;5137137;27;20435;-78
2022/12/10 10:47:30;;;;;;;8.77;2.53;;;2.30;99.90;;;;;;5137155;27;20451;-78
2022/12/10 10:49:58;;;;;;;1.20;1.10;;;2.40;99.90;;;;;;5137360;27;20434;-78
2022/12/10 10:52:30;;;;;;;1.97;1.20;;;2.40;99.90;;;;;;5137160;27;20450;-78
2022/12/10 10:54:57;;;;;;;1.17;0.87;;;2.50;99.90;;;;;;5137016;27;20488;-78
2022/12/10 10:57:26;;;;;;;0.83;0.83;;;2.50;99.90;;;;;;5136673;27;20457;-78
2022/12/10 10:59:55;;;;;;;0.70;0.47;;;2.40;99.90;;;;;;5136898;27;20447;-78
2022/12/10 11:02:27;;;;;;;0.70;0.57;;;2.40;99.90;;;;;;5136841;27;20487;-78
2022/12/10 11:04:58;;;;;;;0.50;0.40;;;2.40;99.90;;;;;;5136765;27;20435;-78
2022/12/10 11:07:34;;;;;;;0.50;0.50;;;2.40;99.90;;;;;;5136852;27;20434;-78
2022/12/10 11:10:02;;;;;;;2.87;0.67;;;2.40;99.90;;;;;;5136832;27;20894;-78
2022/12/10 11:12:34;;;;;;;0.67;0.63;;;2.50;99.90;;;;;;5136693;27;20854;-77
2022/12/10 11:15:01;;;;;;;2.83;0.40;;;2.50;99.90;;;;;;5136767;27;20431;-83
2022/12/10 11:17:28;;;;;;;1.90;1.37;;;2.40;99.90;;;;;;5136773;27;20446;-84
2022/12/10 11:19:59;;;;;;;2.63;1.00;;;2.40;99.90;;;;;;5136112;27;20973;-77
2022/12/10 11:22:31;;;;;;;0.93;0.43;;;2.40;99.90;;;;;;5136091;27;20577;-77
2022/12/10 11:24:59;;;;;;;0.70;0.30;;;2.50;99.90;;;;;;5136170;27;20917;-77
2022/12/10 11:27:47;;;;;;;0.63;0.63;;;2.40;99.90;;;;;;5136073;27;20457;-77
2022/12/10 11:30:19;;;;;;;0.43;0.40;;;2.50;99.90;;;;;;5136394;27;20474;-77
2022/12/10 11:33:16;;;;;;;0.40;0.40;;;2.50;99.90;;;;;;5136381;27;20427;-77
2022/12/10 11:35:56;;;;;;;0.50;0.50;;;2.50;99.90;;;;;;5136383;27;20468;-77
2022/12/10 11:38:28;;;;;;;0.80;0.80;;;2.50;99.90;;;;;;5137133;27;20439;-77
2022/12/10 11:41:02;;;;;;;0.73;0.73;;;2.60;99.90;;;;;;5135913;27;20953;-76
2022/12/10 11:43:43;;;;;;;0.40;0.40;;;2.60;99.90;;;;;;5136165;27;20489;-77
2022/12/10 11:46:27;;;;;;;1.27;1.17;;;2.70;99.90;;;;;;5136328;27;20458;-77
2022/12/10 11:49:06;;;;;;;1.10;1.10;;;2.70;99.90;;;;;;5136074;27;20431;-77
